Time;durP1;ratioP1;P1;durP2;ratioP2;P2;SDS_P1;SDS_P2;PMS_P1;PMS_P2;Temp;Humidity;BMP_temperature;BMP_pressure;BME280_temperature;BME280_humidity;BME280_pressure;Samples;Min_cycle;Max_cycle;Signal;HPM_P1;HPM_P2
2024/02/17 00:00:22;;;;;;;;;;;;;;;;;;5026598;28;20006;-66
2024/02/17 00:02:48;;;;;;;;;;;;;;;;;;5033932;28;19932;-66
2024/02/17 00:05:14;;;;;;;;;;;;;;;;;;5034273;28;19921;-66
2024/02/17 00:07:40;;;;;;;;;;;;;;;;;;4998672;28;19925;-67
2024/02/17 00:10:06;;;;;;;;;;;;;;;;;;5033749;28;19927;-66
2024/02/17 00:12:33;;;;;;;;;;;;;;;;;;5033527;28;20370;-67
2024/02/17 00:14:58;;;;;;;;;;;;;;;;;;5033052;28;19921;-67
2024/02/17 00:17:24;;;;;;;;;;;;;;;;;;5033361;28;19927;-67
2024/02/17 00:19:50;;;;;;;;;;;;;;;;;;5032484;28;20041;-66
2024/02/17 00:22:16;;;;;;;;;;;;;;;;;;5033305;28;19971;-67
2024/02/17 00:24:42;;;;;;;;;;;;;;;;;;5032439;28;19925;-67
2024/02/17 00:27:09;;;;;;;;;;;;;;;;;;5009262;28;19975;-67
2024/02/17 00:29:35;;;;;;;;;;;;;;;;;;5030801;28;19929;-67
2024/02/17 00:32:01;;;;;;;;;;;;;;;;;;5014726;28;20293;-66
2024/02/17 00:34:27;;;;;;;;;;;;;;;;;;5030330;28;19928;-66
2024/02/17 00:36:53;;;;;;;;;;;;;;;;;;5012915;28;19925;-66
2024/02/17 00:39:18;;;;;;;;;;;;;;;;;;5010885;28;19929;-66
2024/02/17 00:41:45;;;;;;;;;;;;;;;;;;5031216;28;20256;-67
2024/02/17 00:44:12;;;;;;;;;;;;;;;;;;5032272;28;19975;-66
2024/02/17 00:46:38;;;;;;;;;;;;;;;;;;5026527;28;19956;-65
2024/02/17 00:49:04;;;;;;;;;;;;;;;;;;5005599;28;19972;-66
2024/02/17 00:51:30;;;;;;;;;;;;;;;;;;5018208;28;19934;-66
2024/02/17 00:53:55;;;;;;;;;;;;;;;;;;5017033;28;19922;-67
2024/02/17 00:56:21;;;;;;;;;;;;;;;;;;5032292;28;19956;-66
2024/02/17 00:58:47;;;;;;;;;;;;;;;;;;5033350;28;19965;-65
2024/02/17 01:01:13;;;;;;;;;;;;;;;;;;5025081;28;19925;-66
2024/02/17 01:03:39;;;;;;;;;;;;;;;;;;5031887;28;20803;-66
2024/02/17 01:06:07;;;;;;;;;;;;;;;;;;5032901;28;19921;-65
2024/02/17 01:08:33;;;;;;;;;;;;;;;;;;5031076;28;20011;-65
2024/02/17 01:10:59;;;;;;;;;;;;;;;;;;5032537;28;20055;-66
2024/02/17 01:13:25;;;;;;;;;;;;;;;;;;5015985;28;20051;-67
2024/02/17 01:15:51;;;;;;;;;;;;;;;;;;5030212;28;19983;-66
2024/02/17 01:18:16;;;;;;;;;;;;;;;;;;5032587;28;19928;-65
2024/02/17 01:20:42;;;;;;;;;;;;;;;;;;5031191;28;19964;-66
2024/02/17 01:23:08;;;;;;;;;;;;;;;;;;5025744;28;19925;-67
2024/02/17 01:25:34;;;;;;;;;;;;;;;;;;5014166;28;19932;-66
2024/02/17 01:28:00;;;;;;;;;;;;;;;;;;5031884;28;19931;-66
2024/02/17 01:30:26;;;;;;;;;;;;;;;;;;5009640;28;19929;-67
2024/02/17 01:32:52;;;;;;;;;;;;;;;;;;5025836;28;20381;-66
2024/02/17 01:35:18;;;;;;;;;;;;;;;;;;5019986;28;19925;-66
2024/02/17 01:37:48;;;;;;;;;;;;;;;;;;5030529;28;19921;-66
2024/02/17 01:40:14;;;;;;;;;;;;;;;;;;5032362;28;19925;-66
2024/02/17 01:42:40;;;;;;;;;;;;;;;;;;5014716;28;19937;-66
2024/02/17 01:45:07;;;;;;;;;;;;;;;;;;4996533;28;19924;-65
2024/02/17 01:47:33;;;;;;;;;;;;;;;;;;5028663;28;19924;-66
2024/02/17 01:49:59;;;;;;;;;;;;;;;;;;5029934;28;19929;-65
2024/02/17 01:52:25;;;;;;;;;;;;;;;;;;5031634;28;20048;-67
2024/02/17 01:54:50;;;;;;;;;;;;;;;;;;5010360;28;20389;-67
2024/02/17 01:57:16;;;;;;;;;;;;;;;;;;5032928;28;19932;-67
2024/02/17 01:59:42;;;;;;;;;;;;;;;;;;5031869;28;19921;-66
2024/02/17 02:02:08;;;;;;;;;;;;;;;;;;5031508;28;19948;-65
2024/02/17 02:04:34;;;;;;;;;;;;;;;;;;5031767;28;20035;-66
2024/02/17 02:07:00;;;;;;;;;;;;;;;;;;4992072;28;20008;-65
2024/02/17 02:09:26;;;;;;;;;;;;;;;;;;5028984;28;19921;-66
2024/02/17 02:11:53;;;;;;;;;;;;;;;;;;5029717;28;19925;-66
2024/02/17 02:14:19;;;;;;;;;;;;;;;;;;5032760;28;19927;-66
2024/02/17 02:16:45;;;;;;;;;;;;;;;;;;5031602;28;19921;-65
2024/02/17 02:19:11;;;;;;;;;;;;;;;;;;5019144;28;19964;-66
2024/02/17 02:21:37;;;;;;;;;;;;;;;;;;5029947;28;19971;-66
2024/02/17 02:24:03;;;;;;;;;;;;;;;;;;5032681;28;19921;-66
2024/02/17 02:26:29;;;;;;;;;;;;;;;;;;5027757;28;20007;-65
2024/02/17 02:28:55;;;;;;;;;;;;;;;;;;5031079;28;20321;-66
2024/02/17 02:31:21;;;;;;;;;;;;;;;;;;5031392;28;19921;-66
2024/02/17 02:33:51;;;;;;;;;;;;;;;;;;4999977;28;19925;-65
2024/02/17 02:36:17;;;;;;;;;;;;;;;;;;5027681;28;19925;-65
2024/02/17 02:38:43;;;;;;;;;;;;;;;;;;5029277;28;19925;-66
2024/02/17 02:41:10;;;;;;;;;;;;;;;;;;5024848;28;19987;-66
2024/02/17 02:43:36;;;;;;;;;;;;;;;;;;5012507;28;19933;-66
2024/02/17 02:46:02;;;;;;;;;;;;;;;;;;5019961;28;19929;-66
2024/02/17 02:48:28;;;;;;;;;;;;;;;;;;5031850;28;19921;-66
2024/02/17 02:50:54;;;;;;;;;;;;;;;;;;5032208;28;20284;-65
2024/02/17 02:53:20;;;;;;;;;;;;;;;;;;5031991;28;20506;-67
2024/02/17 02:55:46;;;;;;;;;;;;;;;;;;5011812;28;19955;-67
2024/02/17 02:58:12;;;;;;;;;;;;;;;;;;5025553;28;20302;-66
2024/02/17 03:00:38;;;;;;;;;;;;;;;;;;5027177;28;19929;-67
2024/02/17 03:03:04;;;;;;;;;;;;;;;;;;5012013;28;19928;-66
2024/02/17 03:05:29;;;;;;;;;;;;;;;;;;5028304;28;19925;-67
2024/02/17 03:07:55;;;;;;;;;;;;;;;;;;5030311;28;19955;-66
2024/02/17 03:10:21;;;;;;;;;;;;;;;;;;5010959;28;19924;-66
2024/02/17 03:12:47;;;;;;;;;;;;;;;;;;5008799;28;19932;-67
2024/02/17 03:15:13;;;;;;;;;;;;;;;;;;5030219;28;19921;-66
2024/02/17 03:17:39;;;;;;;;;;;;;;;;;;5030407;28;19945;-66
2024/02/17 03:20:05;;;;;;;;;;;;;;;;;;5035909;28;19943;-67
2024/02/17 03:22:31;;;;;;;;;;;;;;;;;;5033658;28;20429;-67
2024/02/17 03:24:57;;;;;;;;;;;;;;;;;;5030347;28;19943;-65
2024/02/17 03:27:23;;;;;;;;;;;;;;;;;;5034085;28;19925;-67
2024/02/17 03:29:49;;;;;;;;;;;;;;;;;;5036564;28;19924;-65
2024/02/17 03:32:15;;;;;;;;;;;;;;;;;;5020762;28;20000;-66
2024/02/17 03:34:40;;;;;;;;;;;;;;;;;;5033203;28;19964;-66
2024/02/17 03:37:06;;;;;;;;;;;;;;;;;;5033335;28;19971;-66
2024/02/17 03:39:32;;;;;;;;;;;;;;;;;;5032587;28;19921;-67
2024/02/17 03:41:58;;;;;;;;;;;;;;;;;;5034432;28;20445;-65
2024/02/17 03:44:25;;;;;;;;;;;;;;;;;;5031182;28;20436;-66
2024/02/17 03:46:51;;;;;;;;;;;;;;;;;;5021733;28;20299;-67
2024/02/17 03:49:20;;;;;;;;;;;;;;;;;;5029200;28;19921;-66
2024/02/17 03:51:47;;;;;;;;;;;;;;;;;;5026678;28;19940;-65
2024/02/17 03:54:12;;;;;;;;;;;;;;;;;;5036463;28;19948;-66
2024/02/17 03:56:38;;;;;;;;;;;;;;;;;;5010895;28;20302;-66
2024/02/17 03:59:04;;;;;;;;;;;;;;;;;;5030161;28;19948;-65
2024/02/17 04:01:30;;;;;;;;;;;;;;;;;;5015531;28;20032;-67
2024/02/17 04:03:56;;;;;;;;;;;;;;;;;;5016186;28;20437;-67
2024/02/17 04:06:22;;;;;;;;;;;;;;;;;;5020949;28;19947;-66
2024/02/17 04:08:48;;;;;;;;;;;;;;;;;;5034537;28;19929;-66
2024/02/17 04:11:14;;;;;;;;;;;;;;;;;;5034935;28;20352;-66
2024/02/17 04:13:40;;;;;;;;;;;;;;;;;;5030015;28;19940;-66
2024/02/17 04:16:06;;;;;;;;;;;;;;;;;;5015988;28;19925;-66
2024/02/17 04:18:32;;;;;;;;;;;;;;;;;;5021208;28;19957;-66
2024/02/17 04:20:58;;;;;;;;;;;;;;;;;;5034754;28;19925;-66
2024/02/17 04:23:24;;;;;;;;;;;;;;;;;;5031099;28;19928;-66
2024/02/17 04:25:50;;;;;;;;;;;;;;;;;;5037056;28;20414;-67
2024/02/17 04:28:16;;;;;;;;;;;;;;;;;;5029952;28;20379;-66
2024/02/17 04:30:42;;;;;;;;;;;;;;;;;;5004706;28;19928;-66
2024/02/17 04:33:08;;;;;;;;;;;;;;;;;;5033065;28;20471;-66
2024/02/17 04:35:34;;;;;;;;;;;;;;;;;;5024895;28;20055;-66
2024/02/17 04:38:00;;;;;;;;;;;;;;;;;;5033047;28;19974;-66
2024/02/17 04:40:26;;;;;;;;;;;;;;;;;;5027755;28;20116;-66
2024/02/17 04:42:56;;;;;;;;;;;;;;;;;;5023821;28;19925;-67
2024/02/17 04:45:22;;;;;;;;;;;;;;;;;;5021063;28;19925;-65
2024/02/17 04:47:48;;;;;;;;;;;;;;;;;;5018196;28;19928;-66
2024/02/17 04:50:14;;;;;;;;;;;;;;;;;;5030995;28;19925;-65
2024/02/17 04:52:41;;;;;;;;;;;;;;;;;;5021946;28;19937;-66
2024/02/17 04:55:07;;;;;;;;;;;;;;;;;;5014527;28;19922;-67
2024/02/17 04:57:32;;;;;;;;;;;;;;;;;;5022589;28;20463;-67
2024/02/17 04:59:58;;;;;;;;;;;;;;;;;;5021161;28;20402;-66
2024/02/17 05:02:25;;;;;;;;;;;;;;;;;;5013793;28;19928;-66
2024/02/17 05:04:51;;;;;;;;;;;;;;;;;;5031955;28;19921;-66
2024/02/17 05:07:17;;;;;;;;;;;;;;;;;;5033560;28;19932;-67
2024/02/17 05:09:44;;;;;;;;;;;;;;;;;;5015994;28;20301;-66
2024/02/17 05:12:10;;;;;;;;;;;;;;;;;;5028888;28;20432;-67
2024/02/17 05:14:37;;;;;;;;;;;;;;;;;;5025468;28;19928;-66
2024/02/17 05:17:03;;;;;;;;;;;;;;;;;;5023716;28;19922;-67
2024/02/17 05:19:28;;;;;;;;;;;;;;;;;;5028044;28;20333;-66
2024/02/17 05:21:57;;;;;;;;;;;;;;;;;;5013955;28;19921;-66
2024/02/17 05:24:22;;;;;;;;;;;;;;;;;;4997456;28;19966;-66
2024/02/17 05:26:48;;;;;;;;;;;;;;;;;;5005047;28;19921;-66
2024/02/17 05:29:14;;;;;;;;;;;;;;;;;;5022129;28;19925;-65
2024/02/17 05:31:40;;;;;;;;;;;;;;;;;;5029878;28;19933;-67
2024/02/17 05:34:06;;;;;;;;;;;;;;;;;;5023627;28;19964;-67
2024/02/17 05:36:32;;;;;;;;;;;;;;;;;;5006155;28;19922;-66
2024/02/17 05:38:58;;;;;;;;;;;;;;;;;;4986588;28;19960;-66
2024/02/17 05:41:24;;;;;;;;;;;;;;;;;;5028652;28;19932;-67
2024/02/17 05:43:50;;;;;;;;;;;;;;;;;;5000701;28;19929;-67
2024/02/17 05:46:16;;;;;;;;;;;;;;;;;;4998560;28;19921;-67
2024/02/17 05:48:42;;;;;;;;;;;;;;;;;;5031719;28;20087;-66
2024/02/17 05:51:08;;;;;;;;;;;;;;;;;;5012348;28;20430;-65
2024/02/17 05:53:34;;;;;;;;;;;;;;;;;;4999551;28;20000;-66
2024/02/17 05:56:00;;;;;;;;;;;;;;;;;;4995822;28;20021;-66
2024/02/17 05:58:26;;;;;;;;;;;;;;;;;;5016933;28;19933;-67
2024/02/17 06:00:54;;;;;;;;;;;;;;;;;;5021293;28;19921;-66
2024/02/17 06:03:20;;;;;;;;;;;;;;;;;;5014810;28;19971;-66
2024/02/17 06:05:46;;;;;;;;;;;;;;;;;;5013023;28;19926;-67
2024/02/17 06:08:12;;;;;;;;;;;;;;;;;;5026313;28;19921;-66
2024/02/17 06:10:38;;;;;;;;;;;;;;;;;;5023110;28;19925;-66
2024/02/17 06:13:05;;;;;;;;;;;;;;;;;;5025077;28;19932;-66
2024/02/17 06:15:31;;;;;;;;;;;;;;;;;;5021688;28;19925;-66
2024/02/17 06:23:27;;;;;;;;;;;;;;;;;;5011176;28;20321;-66
2024/02/17 06:25:53;;;;;;;;;;;;;;;;;;5025784;28;19975;-67
2024/02/17 06:28:18;;;;;;;;;;;;;;;;;;5020824;28;19925;-66
2024/02/17 06:30:44;;;;;;;;;;;;;;;;;;5032156;28;19924;-68
2024/02/17 06:33:10;;;;;;;;;;;;;;;;;;5017869;28;19929;-67
2024/02/17 06:35:36;;;;;;;;;;;;;;;;;;5020908;28;19922;-66
2024/02/17 06:38:02;;;;;;;;;;;;;;;;;;5016104;28;19941;-66
2024/02/17 06:40:28;;;;;;;;;;;;;;;;;;5021943;28;19932;-65
2024/02/17 06:42:54;;;;;;;;;;;;;;;;;;5013108;28;19925;-66
2024/02/17 06:45:20;;;;;;;;;;;;;;;;;;5030187;28;19924;-66
2024/02/17 06:47:46;;;;;;;;;;;;;;;;;;5030158;28;19927;-66
2024/02/17 06:50:12;;;;;;;;;;;;;;;;;;5014149;28;19925;-66
2024/02/17 06:52:38;;;;;;;;;;;;;;;;;;5030574;28;19932;-68
2024/02/17 06:55:04;;;;;;;;;;;;;;;;;;5032135;28;19921;-66
2024/02/17 06:57:29;;;;;;;;;;;;;;;;;;5014140;28;20371;-66
2024/02/17 06:59:55;;;;;;;;;;;;;;;;;;5030723;28;19925;-65
2024/02/17 07:02:23;;;;;;;;;;;;;;;;;;5026730;28;25094;-66
2024/02/17 07:04:49;;;;;;;;;;;;;;;;;;5031006;28;20260;-65
2024/02/17 07:07:15;;;;;;;;;;;;;;;;;;5013027;28;19992;-67
2024/02/17 07:09:41;;;;;;;;;;;;;;;;;;5030652;28;19926;-67
2024/02/17 07:12:07;;;;;;;;;;;;;;;;;;5031498;28;19925;-66
2024/02/17 07:14:33;;;;;;;;;;;;;;;;;;5031744;28;19925;-66
2024/02/17 07:16:59;;;;;;;;;;;;;;;;;;5012123;28;19921;-67
2024/02/17 07:19:25;;;;;;;;;;;;;;;;;;5031616;28;19964;-67
2024/02/17 07:21:52;;;;;;;;;;;;;;;;;;5031681;28;19961;-66
2024/02/17 07:24:17;;;;;;;;;;;;;;;;;;5031571;28;19960;-66
2024/02/17 07:26:43;;;;;;;;;;;;;;;;;;5031398;28;20354;-66
2024/02/17 07:29:11;;;;;;;;;;;;;;;;;;5031530;28;19967;-65
2024/02/17 07:31:37;;;;;;;;;;;;;;;;;;5029297;28;20352;-66
2024/02/17 07:34:03;;;;;;;;;;;;;;;;;;5029179;28;19931;-66
2024/02/17 07:36:29;;;;;;;;;;;;;;;;;;5030647;28;19952;-65
2024/02/17 07:38:55;;;;;;;;;;;;;;;;;;4995509;28;19959;-66
2024/02/17 07:41:21;;;;;;;;;;;;;;;;;;5028857;28;19991;-65
2024/02/17 07:43:48;;;;;;;;;;;;;;;;;;5008312;28;19936;-65
2024/02/17 07:46:14;;;;;;;;;;;;;;;;;;5026958;28;19921;-66
2024/02/17 07:48:41;;;;;;;;;;;;;;;;;;5011769;28;19936;-65
2024/02/17 07:51:07;;;;;;;;;;;;;;;;;;5012761;28;20004;-66
2024/02/17 07:53:33;;;;;;;;;;;;;;;;;;5030222;28;20016;-66
2024/02/17 07:55:59;;;;;;;;;;;;;;;;;;5011372;28;20466;-66
2024/02/17 07:58:25;;;;;;;;;;;;;;;;;;5006082;28;19921;-66
2024/02/17 08:00:51;;;;;;;;;;;;;;;;;;5020117;28;20406;-65
2024/02/17 08:03:18;;;;;;;;;;;;;;;;;;5015082;28;20311;-66
2024/02/17 08:05:43;;;;;;;;;;;;;;;;;;5021096;28;19983;-65
2024/02/17 08:08:09;;;;;;;;;;;;;;;;;;5016302;28;19924;-67
2024/02/17 08:10:35;;;;;;;;;;;;;;;;;;5032653;28;20260;-66
2024/02/17 08:13:01;;;;;;;;;;;;;;;;;;5031461;28;19929;-65
2024/02/17 08:15:27;;;;;;;;;;;;;;;;;;5016046;28;19921;-65
2024/02/17 08:17:53;;;;;;;;;;;;;;;;;;5021171;28;20394;-66
2024/02/17 08:20:19;;;;;;;;;;;;;;;;;;5015921;28;19921;-66
2024/02/17 08:22:45;;;;;;;;;;;;;;;;;;5031842;28;19921;-66
2024/02/17 08:25:11;;;;;;;;;;;;;;;;;;5033820;28;19921;-66
2024/02/17 08:27:38;;;;;;;;;;;;;;;;;;5030943;28;19925;-66
2024/02/17 08:30:04;;;;;;;;;;;;;;;;;;5032478;28;19928;-66
2024/02/17 08:32:32;;;;;;;;;;;;;;;;;;5030709;28;19991;-67
2024/02/17 08:34:58;;;;;;;;;;;;;;;;;;5029841;28;19929;-67
2024/02/17 08:37:24;;;;;;;;;;;;;;;;;;5032894;28;19971;-66
2024/02/17 08:39:50;;;;;;;;;;;;;;;;;;5016128;28;19959;-67
2024/02/17 08:42:15;;;;;;;;;;;;;;;;;;5033045;28;20402;-65
2024/02/17 08:44:41;;;;;;;;;;;;;;;;;;5028772;28;19925;-65
2024/02/17 08:47:07;;;;;;;;;;;;;;;;;;5032652;28;19932;-66
2024/02/17 08:49:33;;;;;;;;;;;;;;;;;;5033006;28;19928;-66
2024/02/17 08:51:59;;;;;;;;;;;;;;;;;;5034311;28;19921;-67
2024/02/17 08:54:26;;;;;;;;;;;;;;;;;;5030473;28;19947;-66
2024/02/17 08:56:53;;;;;;;;;;;;;;;;;;5017430;28;19959;-66
2024/02/17 08:59:19;;;;;;;;;;;;;;;;;;5034023;28;19947;-66
2024/02/17 09:01:45;;;;;;;;;;;;;;;;;;5033455;28;20406;-65
2024/02/17 09:04:11;;;;;;;;;;;;;;;;;;5031499;28;19921;-66
2024/02/17 09:06:37;;;;;;;;;;;;;;;;;;5032523;28;19928;-66
2024/02/17 09:09:03;;;;;;;;;;;;;;;;;;5033739;28;19932;-66
2024/02/17 09:11:29;;;;;;;;;;;;;;;;;;5032388;28;19925;-67
2024/02/17 09:13:55;;;;;;;;;;;;;;;;;;5032431;28;19921;-66
2024/02/17 09:16:20;;;;;;;;;;;;;;;;;;5031402;28;19925;-66
2024/02/17 09:18:46;;;;;;;;;;;;;;;;;;5033549;28;19932;-66
2024/02/17 09:21:12;;;;;;;;;;;;;;;;;;5032214;28;19920;-65
2024/02/17 09:23:38;;;;;;;;;;;;;;;;;;5033296;28;20374;-66
2024/02/17 09:26:04;;;;;;;;;;;;;;;;;;5032644;28;19928;-65
2024/02/17 09:28:30;;;;;;;;;;;;;;;;;;5026055;28;20373;-65
2024/02/17 09:30:56;;;;;;;;;;;;;;;;;;5019013;28;19933;-65
2024/02/17 09:33:28;;;;;;;;;;;;;;;;;;5030715;28;19963;-66
2024/02/17 09:35:54;;;;;;;;;;;;;;;;;;5031833;28;20538;-66
2024/02/17 09:38:20;;;;;;;;;;;;;;;;;;5028977;28;19925;-65
2024/02/17 09:40:46;;;;;;;;;;;;;;;;;;5021792;23;20019;-62
2024/02/17 09:43:12;;;;;;;;;;;;;;;;;;5010362;28;19948;-62
2024/02/17 09:45:37;;;;;;;;;;;;;;;;;;4990785;28;19922;-63
2024/02/17 09:48:03;;;;;;;;;;;;;;;;;;4993890;28;20342;-64
2024/02/17 09:50:29;;;;;;;;;;;;;;;;;;4992378;28;19956;-63
2024/02/17 09:52:55;;;;;;;;;;;;;;;;;;4986292;28;19969;-64
2024/02/17 09:55:22;;;;;;;;;;;;;;;;;;5004804;28;20433;-64
2024/02/17 09:57:48;;;;;;;;;;;;;;;;;;5010294;28;19928;-61
2024/02/17 10:00:14;;;;;;;;;;;;;;;;;;5007788;28;20012;-62
2024/02/17 10:02:40;;;;;;;;;;;;;;;;;;4991634;28;20019;-62
2024/02/17 10:05:06;;;;;;;;;;;;;;;;;;4994408;28;20347;-62
2024/02/17 10:07:31;;;;;;;;;;;;;;;;;;4992909;28;20012;-62
2024/02/17 10:09:57;;;;;;;;;;;;;;;;;;5011462;28;19929;-64
2024/02/17 10:12:24;;;;;;;;;;;;;;;;;;5003209;28;19921;-63
2024/02/17 10:14:50;;;;;;;;;;;;;;;;;;5009408;28;19925;-63
2024/02/17 10:17:16;;;;;;;;;;;;;;;;;;4993171;28;20020;-63
2024/02/17 10:19:42;;;;;;;;;;;;;;;;;;4976693;28;20008;-63
2024/02/17 10:22:08;;;;;;;;;;;;;;;;;;5007369;28;20064;-63
2024/02/17 10:24:34;;;;;;;;;;;;;;;;;;4990555;28;19925;-63
2024/02/17 10:27:00;;;;;;;;;;;;;;;;;;4990938;28;19922;-63
2024/02/17 10:29:26;;;;;;;;;;;;;;;;;;5010632;28;19921;-63
2024/02/17 10:31:51;;;;;;;;;;;;;;;;;;5001718;28;20307;-63
2024/02/17 10:34:17;;;;;;;;;;;;;;;;;;4972236;28;19967;-63
2024/02/17 10:36:43;;;;;;;;;;;;;;;;;;4994135;28;20379;-63
2024/02/17 10:39:11;;;;;;;;;;;;;;;;;;5007935;28;21689;-63
2024/02/17 10:41:37;;;;;;;;;;;;;;;;;;5009990;28;19929;-62
2024/02/17 10:44:03;;;;;;;;;;;;;;;;;;4987012;28;19925;-62
2024/02/17 10:46:29;;;;;;;;;;;;;;;;;;4974094;28;20391;-62
2024/02/17 10:48:55;;;;;;;;;;;;;;;;;;5006720;28;19925;-63
2024/02/17 10:51:21;;;;;;;;;;;;;;;;;;4976885;28;19932;-63
2024/02/17 10:53:47;;;;;;;;;;;;;;;;;;5010584;28;19925;-63
2024/02/17 10:56:15;;;;;;;;;;;;;;;;;;5010657;28;19936;-63
2024/02/17 10:58:41;;;;;;;;;;;;;;;;;;5002831;28;19983;-63
2024/02/17 11:01:08;;;;;;;;;;;;;;;;;;4992623;28;19925;-63
2024/02/17 11:03:34;;;;;;;;;;;;;;;;;;4986345;28;19965;-63
2024/02/17 11:05:59;;;;;;;;;;;;;;;;;;4988993;28;19960;-62
2024/02/17 11:08:25;;;;;;;;;;;;;;;;;;4991741;28;19952;-61
2024/02/17 11:10:51;;;;;;;;;;;;;;;;;;4988168;28;19999;-62
2024/02/17 11:13:17;;;;;;;;;;;;;;;;;;4987207;28;20028;-62
2024/02/17 11:15:43;;;;;;;;;;;;;;;;;;5004731;28;20020;-62
2024/02/17 11:18:09;;;;;;;;;;;;;;;;;;5004451;28;20004;-62
2024/02/17 11:20:35;;;;;;;;;;;;;;;;;;4992245;28;20394;-62
2024/02/17 11:23:01;;;;;;;;;;;;;;;;;;5010441;28;19925;-63
2024/02/17 11:25:29;;;;;;;;;;;;;;;;;;5006183;28;20097;-63
2024/02/17 11:27:54;;;;;;;;;;;;;;;;;;4992149;28;20443;-63
2024/02/17 11:30:20;;;;;;;;;;;;;;;;;;5006275;28;20012;-63
2024/02/17 11:32:46;;;;;;;;;;;;;;;;;;5010716;28;20072;-63
2024/02/17 11:35:13;;;;;;;;;;;;;;;;;;5010020;28;20016;-63
2024/02/17 11:37:39;;;;;;;;;;;;;;;;;;5010002;28;20429;-63
2024/02/17 11:40:05;;;;;;;;;;;;;;;;;;5000324;28;19956;-63
2024/02/17 11:42:31;;;;;;;;;;;;;;;;;;5012833;28;20053;-63
2024/02/17 11:44:57;;;;;;;;;;;;;;;;;;5008450;28;19960;-63
2024/02/17 11:47:23;;;;;;;;;;;;;;;;;;5012775;28;20374;-63
2024/02/17 11:49:50;;;;;;;;;;;;;;;;;;5007056;28;19976;-63
2024/02/17 11:52:19;;;;;;;;;;;;;;;;;;5007714;28;20016;-63
2024/02/17 11:54:45;;;;;;;;;;;;;;;;;;5013000;28;19921;-63
2024/02/17 11:57:11;;;;;;;;;;;;;;;;;;5014810;28;20389;-63
2024/02/17 11:59:36;;;;;;;;;;;;;;;;;;5005358;28;19948;-63
2024/02/17 12:02:03;;;;;;;;;;;;;;;;;;5008863;28;19965;-63
2024/02/17 12:04:29;;;;;;;;;;;;;;;;;;4998507;28;19952;-63
2024/02/17 12:06:55;;;;;;;;;;;;;;;;;;5010956;28;20367;-63
2024/02/17 12:09:21;;;;;;;;;;;;;;;;;;5008516;28;20060;-63
2024/02/17 12:11:47;;;;;;;;;;;;;;;;;;5009392;28;19931;-63
2024/02/17 12:14:16;;;;;;;;;;;;;;;;;;5009691;28;19930;-63
2024/02/17 12:16:42;;;;;;;;;;;;;;;;;;5008667;28;19925;-63
2024/02/17 12:19:09;;;;;;;;;;;;;;;;;;5004403;28;19926;-63
2024/02/17 12:21:35;;;;;;;;;;;;;;;;;;5002680;28;19926;-63
2024/02/17 12:24:02;;;;;;;;;;;;;;;;;;4982299;28;20422;-63
2024/02/17 12:26:31;;;;;;;;;;;;;;;;;;5001674;28;19925;-63
2024/02/17 12:28:57;;;;;;;;;;;;;;;;;;5007502;28;19929;-63
2024/02/17 12:31:23;;;;;;;;;;;;;;;;;;5012864;28;19925;-63
2024/02/17 12:33:50;;;;;;;;;;;;;;;;;;5012534;28;19925;-63
2024/02/17 12:36:16;;;;;;;;;;;;;;;;;;5012743;28;20271;-63
2024/02/17 12:38:42;;;;;;;;;;;;;;;;;;5013972;28;19925;-64
2024/02/17 12:41:08;;;;;;;;;;;;;;;;;;5003509;28;19936;-63
2024/02/17 12:43:34;;;;;;;;;;;;;;;;;;5004584;28;19933;-63
2024/02/17 12:46:00;;;;;;;;;;;;;;;;;;5009808;28;19928;-63
2024/02/17 12:48:26;;;;;;;;;;;;;;;;;;5011538;28;19939;-64
2024/02/17 12:50:52;;;;;;;;;;;;;;;;;;5000170;28;19981;-63
2024/02/17 12:53:18;;;;;;;;;;;;;;;;;;5002446;28;20000;-64
2024/02/17 12:55:44;;;;;;;;;;;;;;;;;;5010182;28;20052;-64
2024/02/17 12:58:10;;;;;;;;;;;;;;;;;;5011363;28;19956;-63
2024/02/17 13:00:36;;;;;;;;;;;;;;;;;;5010612;28;19922;-64
2024/02/17 13:03:03;;;;;;;;;;;;;;;;;;5009049;28;19941;-64
2024/02/17 13:05:29;;;;;;;;;;;;;;;;;;5009703;28;20256;-64
2024/02/17 13:07:55;;;;;;;;;;;;;;;;;;5008315;28;19929;-63
2024/02/17 13:10:21;;;;;;;;;;;;;;;;;;4999844;28;19925;-63
2024/02/17 13:12:47;;;;;;;;;;;;;;;;;;5005889;28;19925;-63
2024/02/17 13:15:19;;;;;;;;;;;;;;;;;;5012821;28;19967;-63
2024/02/17 13:17:45;;;;;;;;;;;;;;;;;;5013940;28;19927;-64
2024/02/17 13:20:10;;;;;;;;;;;;;;;;;;5007286;28;19929;-63
2024/02/17 13:22:37;;;;;;;;;;;;;;;;;;5012613;28;19925;-63
2024/02/17 13:25:03;;;;;;;;;;;;;;;;;;5012307;28;19941;-63
2024/02/17 13:27:38;;;;;;;;;;;;;;;;;;5009359;28;19929;-62
2024/02/17 13:30:04;;;;;;;;;;;;;;;;;;5011942;28;19980;-62
2024/02/17 13:32:29;;;;;;;;;;;;;;;;;;5009894;28;19925;-63
2024/02/17 13:34:55;;;;;;;;;;;;;;;;;;5006037;28;19922;-62
2024/02/17 13:37:21;;;;;;;;;;;;;;;;;;5009264;28;19999;-62
2024/02/17 13:39:47;;;;;;;;;;;;;;;;;;5011965;28;19933;-63
2024/02/17 13:42:13;;;;;;;;;;;;;;;;;;5012434;28;19925;-62
2024/02/17 13:44:39;;;;;;;;;;;;;;;;;;5009248;28;19921;-63
2024/02/17 13:47:05;;;;;;;;;;;;;;;;;;5009132;28;19931;-63
2024/02/17 13:49:31;;;;;;;;;;;;;;;;;;4991375;28;20099;-63
2024/02/17 13:51:57;;;;;;;;;;;;;;;;;;5004817;28;20036;-62
2024/02/17 13:54:23;;;;;;;;;;;;;;;;;;5013420;28;19921;-63
2024/02/17 13:56:50;;;;;;;;;;;;;;;;;;4995074;28;19961;-63
2024/02/17 13:59:16;;;;;;;;;;;;;;;;;;5011208;28;20468;-63
2024/02/17 14:01:42;;;;;;;;;;;;;;;;;;5007974;28;19925;-63
2024/02/17 14:04:09;;;;;;;;;;;;;;;;;;4991574;28;20067;-63
2024/02/17 14:06:35;;;;;;;;;;;;;;;;;;4992216;28;19929;-63
2024/02/17 14:09:01;;;;;;;;;;;;;;;;;;4982963;28;19921;-63
2024/02/17 14:11:26;;;;;;;;;;;;;;;;;;5012939;28;19925;-63
2024/02/17 14:13:53;;;;;;;;;;;;;;;;;;4995245;28;19925;-64
2024/02/17 14:16:19;;;;;;;;;;;;;;;;;;4991807;28;20391;-64
2024/02/17 14:18:44;;;;;;;;;;;;;;;;;;4977613;28;19921;-64
2024/02/17 14:21:10;;;;;;;;;;;;;;;;;;4990729;28;20332;-64
2024/02/17 14:23:36;;;;;;;;;;;;;;;;;;5010826;28;19929;-62
2024/02/17 14:26:02;;;;;;;;;;;;;;;;;;5000628;28;19929;-62
2024/02/17 14:28:29;;;;;;;;;;;;;;;;;;4995001;28;19928;-63
2024/02/17 14:30:55;;;;;;;;;;;;;;;;;;5009718;28;19930;-63
2024/02/17 14:33:21;;;;;;;;;;;;;;;;;;4992790;28;20385;-63
2024/02/17 14:35:47;;;;;;;;;;;;;;;;;;4992974;28;19990;-63
2024/02/17 14:38:12;;;;;;;;;;;;;;;;;;4994119;28;19932;-63
2024/02/17 14:40:38;;;;;;;;;;;;;;;;;;5005716;28;19937;-64
2024/02/17 14:43:04;;;;;;;;;;;;;;;;;;5009268;28;19929;-64
2024/02/17 14:45:31;;;;;;;;;;;;;;;;;;5008021;28;20012;-64
2024/02/17 14:47:59;;;;;;;;;;;;;;;;;;5009623;28;19928;-64
2024/02/17 14:50:25;;;;;;;;;;;;;;;;;;5008399;28;19929;-64
2024/02/17 14:52:54;;;;;;;;;;;;;;;;;;5008522;28;19932;-64
2024/02/17 14:55:20;;;;;;;;;;;;;;;;;;5007919;28;19925;-64
2024/02/17 14:57:46;;;;;;;;;;;;;;;;;;5006796;28;20372;-64
2024/02/17 15:00:12;;;;;;;;;;;;;;;;;;5009010;28;19936;-64
2024/02/17 15:02:38;;;;;;;;;;;;;;;;;;5011195;28;19947;-64
2024/02/17 15:05:04;;;;;;;;;;;;;;;;;;5011292;28;20008;-64
2024/02/17 15:07:30;;;;;;;;;;;;;;;;;;5010508;28;19932;-64
2024/02/17 15:09:56;;;;;;;;;;;;;;;;;;4983671;28;19926;-64
2024/02/17 15:12:22;;;;;;;;;;;;;;;;;;5005874;28;20279;-64
2024/02/17 15:14:48;;;;;;;;;;;;;;;;;;5008679;28;19926;-64
2024/02/17 15:17:14;;;;;;;;;;;;;;;;;;5009162;28;20011;-62
2024/02/17 15:19:41;;;;;;;;;;;;;;;;;;4992253;28;20056;-63
2024/02/17 15:22:07;;;;;;;;;;;;;;;;;;5010136;28;19925;-64
2024/02/17 15:24:33;;;;;;;;;;;;;;;;;;4990396;28;19928;-64
2024/02/17 15:26:59;;;;;;;;;;;;;;;;;;5002095;28;20031;-64
2024/02/17 15:29:24;;;;;;;;;;;;;;;;;;5010967;28;19968;-64
2024/02/17 15:31:50;;;;;;;;;;;;;;;;;;4996074;28;19963;-64
2024/02/17 15:34:17;;;;;;;;;;;;;;;;;;4992566;28;19922;-63
2024/02/17 15:36:43;;;;;;;;;;;;;;;;;;5009541;28;20473;-64
2024/02/17 15:39:09;;;;;;;;;;;;;;;;;;5007761;28;19926;-64
2024/02/17 15:41:35;;;;;;;;;;;;;;;;;;5006756;28;20012;-64
2024/02/17 15:44:01;;;;;;;;;;;;;;;;;;5010061;28;19925;-61
2024/02/17 15:46:27;;;;;;;;;;;;;;;;;;4984869;28;19956;-62
2024/02/17 15:48:53;;;;;;;;;;;;;;;;;;5010662;28;20295;-63
2024/02/17 15:51:19;;;;;;;;;;;;;;;;;;4991172;28;19926;-62
2024/02/17 15:53:45;;;;;;;;;;;;;;;;;;5009553;28;20776;-63
2024/02/17 15:56:16;;;;;;;;;;;;;;;;;;5007010;28;19933;-63
2024/02/17 15:58:42;;;;;;;;;;;;;;;;;;5004296;28;19937;-63
2024/02/17 16:01:08;;;;;;;;;;;;;;;;;;5001981;28;20488;-63
2024/02/17 16:03:34;;;;;;;;;;;;;;;;;;4994871;28;19932;-63
2024/02/17 16:06:04;;;;;;;;;;;;;;;;;;5008522;28;19968;-63
2024/02/17 16:08:30;;;;;;;;;;;;;;;;;;5008246;28;19932;-63
2024/02/17 16:10:56;;;;;;;;;;;;;;;;;;4986786;28;19929;-63
2024/02/17 16:13:22;;;;;;;;;;;;;;;;;;4989494;28;19922;-63
2024/02/17 16:15:48;;;;;;;;;;;;;;;;;;5005786;28;20303;-63
2024/02/17 16:18:14;;;;;;;;;;;;;;;;;;4991612;28;19928;-63
2024/02/17 16:20:40;;;;;;;;;;;;;;;;;;5009537;28;19930;-63
2024/02/17 16:23:06;;;;;;;;;;;;;;;;;;5009267;28;20019;-63
2024/02/17 16:25:32;;;;;;;;;;;;;;;;;;5009739;28;20000;-63
2024/02/17 16:27:58;;;;;;;;;;;;;;;;;;4999992;28;20335;-63
2024/02/17 16:30:24;;;;;;;;;;;;;;;;;;5011170;28;19934;-63
2024/02/17 16:32:50;;;;;;;;;;;;;;;;;;5012783;28;19952;-63
2024/02/17 16:35:16;;;;;;;;;;;;;;;;;;5010396;28;20331;-63
2024/02/17 16:37:42;;;;;;;;;;;;;;;;;;5008656;28;19925;-63
2024/02/17 16:40:08;;;;;;;;;;;;;;;;;;4995616;28;19992;-63
2024/02/17 16:42:36;;;;;;;;;;;;;;;;;;5009115;28;19921;-63